EZY65PA EGKK-LFBD
Flight info
| Callsign | EZY65PA |
|---|---|
| Flight time | N/A |
| Altitude | 33000 |
| Route | SFD Y47 BENBO UY47 DRAKE L151 SITET UN859 SOPIL DCT BALAN DCT LMG |
| Aircraft | A320/M-SDE3FGHIRWY/LB1 |
Departure
| Time | 2026-05-04 11:12 |
|---|---|
| Airport | London Gatwick Airport (EGKK) |
Arrival
| Time | N/A |
|---|---|
| Airport | Bordeaux–Mérignac Airport (LFBD) |
| Time | Latitude | Longitude | Altitude | Speed | Heading |
|---|---|---|---|---|---|
| 2026-05-04 10:26 | 51.15660 | -0.17699 | 213 ft | 0 kts | 167° |
| 2026-05-04 10:56 | 51.15739 | -0.17680 | 211 ft | 0 kts | 255° |
| 2026-05-04 10:58 | 51.15737 | -0.17698 | 213 ft | 5 kts | 257° |
| 2026-05-04 10:58 | 51.15722 | -0.17801 | 205 ft | 14 kts | 257° |
| 2026-05-04 10:58 | 51.15695 | -0.17996 | 207 ft | 20 kts | 257° |
| 2026-05-04 10:58 | 51.15667 | -0.18202 | 209 ft | 16 kts | 258° |
| 2026-05-04 10:59 | 51.15638 | -0.18337 | 207 ft | 11 kts | 220° |
| 2026-05-04 10:59 | 51.15567 | -0.18342 | 209 ft | 10 kts | 167° |
| 2026-05-04 10:59 | 51.15491 | -0.18315 | 208 ft | 12 kts | 168° |
| 2026-05-04 10:59 | 51.15398 | -0.18285 | 205 ft | 15 kts | 167° |
| 2026-05-04 11:00 | 51.15291 | -0.18248 | 209 ft | 17 kts | 167° |
| 2026-05-04 11:01 | 51.15015 | -0.19266 | 210 ft | 7 kts | 179° |
| 2026-05-04 11:02 | 51.14974 | -0.19295 | 213 ft | 9 kts | 230° |
| 2026-05-04 11:02 | 51.14945 | -0.19421 | 210 ft | 17 kts | 259° |
| 2026-05-04 11:05 | 51.14700 | -0.21193 | 205 ft | 0 kts | 257° |
| 2026-05-04 11:06 | 51.14696 | -0.21224 | 209 ft | 5 kts | 258° |
| 2026-05-04 11:06 | 51.14691 | -0.21265 | 209 ft | 6 kts | 258° |
| 2026-05-04 11:06 | 51.14683 | -0.21301 | 211 ft | 0 kts | 242° |
| 2026-05-04 11:08 | 51.14624 | -0.21331 | 205 ft | 0 kts | 172° |
| 2026-05-04 11:10 | 51.14636 | -0.20348 | 210 ft | 99 kts | 78° |
| 2026-05-04 11:12 | 51.16047 | -0.06674 | 3783 ft | 229 kts | 116° |
| 2026-05-04 11:12 | 51.14952 | -0.04750 | 4328 ft | 251 kts | 151° |
| 2026-05-04 11:12 | 51.13256 | -0.03821 | 5035 ft | 264 kts | 168° |
| 2026-05-04 11:12 | 51.11433 | -0.03369 | 6001 ft | 267 kts | 173° |
| 2026-05-04 11:13 | 51.09575 | -0.03018 | 6969 ft | 270 kts | 173° |
| 2026-05-04 11:13 | 51.07715 | -0.02501 | 7877 ft | 274 kts | 169° |
| 2026-05-04 11:13 | 51.05848 | -0.01799 | 8870 ft | 277 kts | 166° |
| 2026-05-04 11:13 | 51.03978 | -0.00985 | 9833 ft | 281 kts | 165° |
| 2026-05-04 11:14 | 51.02094 | -0.00109 | 10667 ft | 284 kts | 165° |
| 2026-05-04 11:14 | 51.00186 | 0.00799 | 11466 ft | 288 kts | 165° |
| 2026-05-04 11:14 | 50.98252 | 0.01727 | 12294 ft | 292 kts | 164° |
| 2026-05-04 11:16 | 50.84039 | 0.08450 | 17634 ft | 314 kts | 164° |
| 2026-05-04 11:16 | 50.81941 | 0.09434 | 18361 ft | 316 kts | 164° |
| 2026-05-04 11:16 | 50.79822 | 0.10428 | 18998 ft | 319 kts | 164° |
| 2026-05-04 11:17 | 50.77671 | 0.11357 | 19629 ft | 321 kts | 171° |
| 2026-05-04 11:17 | 50.75438 | 0.11654 | 20222 ft | 325 kts | 182° |
| 2026-05-04 11:19 | 50.57860 | 0.05597 | 22972 ft | 387 kts | 194° |
| 2026-05-04 11:19 | 50.55226 | 0.04649 | 23534 ft | 390 kts | 194° |
| 2026-05-04 11:19 | 50.52576 | 0.03698 | 23998 ft | 392 kts | 194° |
| 2026-05-04 11:19 | 50.49910 | 0.02742 | 24456 ft | 394 kts | 194° |
| 2026-05-04 11:20 | 50.47233 | 0.01781 | 24902 ft | 395 kts | 194° |
| 2026-05-04 11:20 | 50.44552 | 0.00821 | 25323 ft | 397 kts | 194° |
| 2026-05-04 11:20 | 50.41853 | -0.00148 | 25738 ft | 399 kts | 194° |
| 2026-05-04 11:20 | 50.39145 | -0.01121 | 26193 ft | 400 kts | 194° |
| 2026-05-04 11:22 | 50.19774 | -0.05991 | 28934 ft | 414 kts | 172° |
| 2026-05-04 11:22 | 50.16982 | -0.04811 | 29268 ft | 418 kts | 162° |
| 2026-05-04 11:23 | 50.14303 | -0.03007 | 29587 ft | 421 kts | 159° |
| 2026-05-04 11:23 | 50.11621 | -0.01132 | 29890 ft | 423 kts | 159° |
| 2026-05-04 11:24 | 49.94467 | 0.06114 | 31371 ft | 426 kts | 168° |
| 2026-05-04 11:25 | 49.91589 | 0.07246 | 31684 ft | 426 kts | 167° |
| 2026-05-04 11:25 | 49.88720 | 0.08377 | 31990 ft | 425 kts | 167° |
| 2026-05-04 11:25 | 49.85861 | 0.09503 | 32304 ft | 424 kts | 167° |
| 2026-05-04 11:26 | 49.80140 | 0.11733 | 32916 ft | 423 kts | 167° |
| 2026-05-04 11:27 | 49.60374 | 0.19513 | 33028 ft | 418 kts | 167° |
| 2026-05-04 11:28 | 49.54755 | 0.21797 | 33026 ft | 418 kts | 167° |
| 2026-05-04 11:28 | 49.49107 | 0.24081 | 33020 ft | 417 kts | 167° |
| 2026-05-04 11:29 | 49.43479 | 0.26337 | 32990 ft | 417 kts | 167° |
| 2026-05-04 11:29 | 49.37864 | 0.28574 | 32991 ft | 417 kts | 167° |
| 2026-05-04 11:33 | 48.98641 | 0.44896 | 32937 ft | 417 kts | 166° |
| 2026-05-04 11:33 | 48.93050 | 0.47225 | 32953 ft | 416 kts | 166° |
| 2026-05-04 11:34 | 48.87467 | 0.49546 | 32962 ft | 416 kts | 166° |
| 2026-05-04 11:34 | 48.81873 | 0.51860 | 32962 ft | 416 kts | 166° |
| 2026-05-04 11:35 | 48.76280 | 0.54153 | 32970 ft | 416 kts | 167° |
| 2026-05-04 11:35 | 48.70673 | 0.56352 | 32964 ft | 416 kts | 167° |
| 2026-05-04 11:36 | 48.65070 | 0.58519 | 32965 ft | 415 kts | 167° |
| 2026-05-04 11:36 | 48.59434 | 0.60710 | 32957 ft | 415 kts | 167° |
| 2026-05-04 11:37 | 48.53838 | 0.62891 | 32951 ft | 415 kts | 167° |
| 2026-05-04 11:37 | 48.48245 | 0.65100 | 32950 ft | 415 kts | 166° |
| 2026-05-04 11:38 | 48.42672 | 0.67388 | 32948 ft | 415 kts | 166° |
| 2026-05-04 11:38 | 48.37097 | 0.69679 | 32948 ft | 416 kts | 166° |
| 2026-05-04 11:39 | 48.32456 | 0.71567 | 32947 ft | 415 kts | 166° |
| 2026-05-04 11:41 | 48.12891 | 0.79339 | 32942 ft | 416 kts | 167° |
| 2026-05-04 11:41 | 48.07295 | 0.81528 | 32944 ft | 416 kts | 167° |
| 2026-05-04 11:42 | 48.01652 | 0.83733 | 32943 ft | 416 kts | 167° |
| 2026-05-04 11:42 | 47.96051 | 0.85926 | 32926 ft | 416 kts | 167° |
| 2026-05-04 11:43 | 47.90447 | 0.88106 | 32937 ft | 416 kts | 167° |
| 2026-05-04 11:43 | 47.84852 | 0.90273 | 32944 ft | 416 kts | 167° |
| 2026-05-04 11:44 | 47.79279 | 0.92440 | 32942 ft | 416 kts | 167° |
| 2026-05-04 11:44 | 47.73658 | 0.94626 | 32948 ft | 415 kts | 167° |
| 2026-05-04 11:45 | 47.68066 | 0.96786 | 32952 ft | 415 kts | 167° |
| 2026-05-04 11:45 | 47.62483 | 0.98935 | 32949 ft | 415 kts | 167° |
| 2026-05-04 11:46 | 47.56898 | 1.01076 | 32940 ft | 415 kts | 168° |
| 2026-05-04 11:46 | 47.51311 | 1.03213 | 32937 ft | 415 kts | 168° |
| 2026-05-04 11:47 | 47.45722 | 1.05355 | 32945 ft | 415 kts | 168° |
| 2026-05-04 11:47 | 47.40033 | 1.06387 | 32946 ft | 411 kts | 182° |
| 2026-05-04 11:48 | 47.34316 | 1.06247 | 32941 ft | 411 kts | 182° |
| 2026-05-04 11:48 | 47.28590 | 1.06113 | 32943 ft | 411 kts | 182° |
| 2026-05-04 11:49 | 47.22828 | 1.05973 | 32946 ft | 411 kts | 182° |
| 2026-05-04 11:49 | 47.17111 | 1.05835 | 32943 ft | 411 kts | 182° |
| 2026-05-04 11:50 | 47.11388 | 1.05707 | 32938 ft | 411 kts | 182° |
| 2026-05-04 11:50 | 47.05658 | 1.05573 | 32940 ft | 411 kts | 182° |
| 2026-05-04 11:51 | 46.99937 | 1.05429 | 32941 ft | 411 kts | 182° |
| 2026-05-04 11:51 | 46.94220 | 1.05186 | 32935 ft | 411 kts | 183° |
| 2026-05-04 11:52 | 46.88500 | 1.04909 | 32939 ft | 411 kts | 183° |
| 2026-05-04 11:52 | 46.82785 | 1.04657 | 32940 ft | 411 kts | 183° |
| 2026-05-04 11:53 | 46.77064 | 1.04415 | 32941 ft | 412 kts | 183° |
| 2026-05-04 11:53 | 46.71333 | 1.04167 | 32943 ft | 412 kts | 183° |
| 2026-05-04 11:55 | 46.48421 | 1.03234 | 32940 ft | 410 kts | 182° |
| 2026-05-04 11:56 | 46.42711 | 1.03189 | 32938 ft | 411 kts | 181° |
| 2026-05-04 11:56 | 46.36959 | 1.03173 | 32955 ft | 411 kts | 182° |
| 2026-05-04 11:57 | 46.31241 | 1.03126 | 32955 ft | 410 kts | 182° |
| 2026-05-04 11:57 | 46.25549 | 1.03057 | 32951 ft | 409 kts | 182° |
| 2026-05-04 11:58 | 46.19858 | 1.02989 | 32951 ft | 409 kts | 182° |
| 2026-05-04 11:58 | 46.14163 | 1.02911 | 32951 ft | 409 kts | 182° |
| 2026-05-04 11:59 | 46.08469 | 1.02849 | 32957 ft | 409 kts | 182° |
| 2026-05-04 11:59 | 46.02786 | 1.02797 | 32961 ft | 408 kts | 182° |
| 2026-05-04 12:00 | 45.97106 | 1.02735 | 32961 ft | 408 kts | 182° |
| 2026-05-04 12:00 | 45.91427 | 1.02665 | 32957 ft | 408 kts | 182° |
| 2026-05-04 12:01 | 45.85772 | 1.02168 | 32962 ft | 406 kts | 194° |
| 2026-05-04 12:01 | 45.83110 | 1.00867 | 32808 ft | 405 kts | 207° |
| 2026-05-04 12:02 | 45.71643 | 0.82994 | 31202 ft | 413 kts | 231° |
| 2026-05-04 12:03 | 45.69946 | 0.79686 | 30850 ft | 413 kts | 231° |
| 2026-05-04 12:03 | 45.68236 | 0.76347 | 29780 ft | 418 kts | 231° |
| 2026-05-04 12:03 | 45.66516 | 0.72989 | 28838 ft | 417 kts | 231° |
| 2026-05-04 12:03 | 45.64802 | 0.69642 | 28156 ft | 410 kts | 231° |
| 2026-05-04 12:04 | 45.63130 | 0.66376 | 27463 ft | 404 kts | 231° |
| 2026-05-04 12:04 | 45.61478 | 0.63153 | 26789 ft | 400 kts | 231° |
| 2026-05-04 12:04 | 45.59842 | 0.59964 | 26117 ft | 396 kts | 231° |
| 2026-05-04 12:04 | 45.58220 | 0.56803 | 25462 ft | 393 kts | 231° |
| 2026-05-04 12:05 | 45.56608 | 0.53670 | 24806 ft | 390 kts | 231° |
| 2026-05-04 12:05 | 45.55007 | 0.50566 | 24174 ft | 387 kts | 231° |
| 2026-05-04 12:05 | 45.53412 | 0.47479 | 23540 ft | 385 kts | 231° |
| 2026-05-04 12:05 | 45.51706 | 0.44570 | 22593 ft | 385 kts | 220° |